Time;durP1;ratioP1;P1;durP2;ratioP2;P2;SDS_P1;SDS_P2;PMS_P1;PMS_P2;Temp;Humidity;BMP_temperature;BMP_pressure;BME280_temperature;BME280_humidity;BME280_pressure;Samples;Min_cycle;Max_cycle;Signal;HPM_P1;HPM_P2
2022/04/29 00:01:34;;;;;;;11.80;4.90;;;;;;;;;;5116027;27;20152;-65
2022/04/29 00:04:01;;;;;;;15.23;4.90;;;;;;;;;;5111505;27;20052;-64
2022/04/29 00:06:28;;;;;;;18.00;5.90;;;;;;;;;;5129923;27;20212;-64
2022/04/29 00:08:54;;;;;;;8.98;4.75;;;;;;;;;;5116531;27;20080;-64
2022/04/29 00:11:20;;;;;;;11.00;5.00;;;;;;;;;;5114981;27;20130;-64
2022/04/29 00:13:47;;;;;;;18.08;5.40;;;;;;;;;;5112082;27;20166;-65
2022/04/29 00:16:14;;;;;;;17.30;5.57;;;;;;;;;;5117973;27;20076;-65
2022/04/29 00:18:40;;;;;;;11.80;4.93;;;;;;;;;;5116957;27;20045;-64
2022/04/29 00:21:06;;;;;;;14.95;6.03;;;;;;;;;;5108671;28;20080;-64
2022/04/29 00:23:33;;;;;;;14.45;5.07;;;;;;;;;;5111563;27;20155;-64
2022/04/29 00:25:59;;;;;;;16.90;5.20;;;;;;;;;;5109219;27;20150;-65
2022/04/29 00:28:25;;;;;;;14.98;6.10;;;;;;;;;;5119646;27;20961;-64
2022/04/29 00:30:53;;;;;;;13.65;5.40;;;;;;;;;;5108449;27;20087;-65
2022/04/29 00:33:19;;;;;;;12.20;5.30;;;;;;;;;;5111578;27;20148;-65
2022/04/29 00:35:46;;;;;;;13.88;5.55;;;;;;;;;;5108415;27;20616;-64
2022/04/29 00:38:15;;;;;;;12.65;5.55;;;;;;;;;;5114833;27;20087;-65
2022/04/29 00:40:41;;;;;;;10.63;5.93;;;;;;;;;;5127098;27;20601;-65
2022/04/29 00:43:08;;;;;;;12.88;5.43;;;;;;;;;;5118615;27;20094;-65
2022/04/29 00:45:34;;;;;;;12.60;5.40;;;;;;;;;;5129108;27;20079;-65
2022/04/29 00:48:01;;;;;;;13.63;5.55;;;;;;;;;;5115029;27;20052;-64
2022/04/29 00:50:28;;;;;;;12.52;5.53;;;;;;;;;;5120476;27;20134;-65
2022/04/29 00:52:58;;;;;;;13.77;5.43;;;;;;;;;;5126525;27;20079;-64
2022/04/29 00:55:24;;;;;;;18.10;6.45;;;;;;;;;;5122481;27;20088;-65
2022/04/29 00:58:11;;;;;;;11.32;5.82;;;;;;;;;;5118100;27;20128;-64
2022/04/29 01:00:38;;;;;;;15.50;5.55;;;;;;;;;;5107867;27;20702;-65
2022/04/29 01:03:05;;;;;;;14.40;5.88;;;;;;;;;;5122834;27;20097;-65
2022/04/29 01:05:33;;;;;;;15.32;6.43;;;;;;;;;;5123946;27;20052;-64
2022/04/29 01:07:59;;;;;;;11.20;5.28;;;;;;;;;;5128576;27;20142;-64
2022/04/29 01:10:25;;;;;;;16.77;5.40;;;;;;;;;;5115802;27;20094;-65
2022/04/29 01:12:56;;;;;;;11.27;5.22;;;;;;;;;;5113587;27;20115;-64
2022/04/29 01:15:22;;;;;;;12.82;5.60;;;;;;;;;;5128840;27;20059;-64
2022/04/29 01:17:50;;;;;;;11.02;5.15;;;;;;;;;;5127679;27;20093;-65
2022/04/29 01:20:19;;;;;;;14.25;5.80;;;;;;;;;;5128056;27;20134;-65
2022/04/29 01:22:45;;;;;;;10.85;6.53;;;;;;;;;;5115141;27;20056;-65
2022/04/29 01:25:12;;;;;;;11.40;5.75;;;;;;;;;;5129989;27;20106;-65
2022/04/29 01:27:39;;;;;;;11.57;5.60;;;;;;;;;;5114029;27;20119;-65
2022/04/29 01:30:07;;;;;;;19.08;6.53;;;;;;;;;;5124293;27;20131;-64
2022/04/29 01:32:34;;;;;;;21.00;7.53;;;;;;;;;;5114979;27;20105;-64
2022/04/29 01:35:00;;;;;;;12.60;5.68;;;;;;;;;;5113286;27;20052;-64
2022/04/29 01:37:26;;;;;;;10.55;5.78;;;;;;;;;;5106403;27;20083;-64
2022/04/29 01:39:53;;;;;;;11.95;5.55;;;;;;;;;;5116009;27;20168;-64
2022/04/29 01:42:19;;;;;;;13.02;5.78;;;;;;;;;;5112221;27;20074;-64
2022/04/29 01:44:51;;;;;;;16.35;5.15;;;;;;;;;;5108096;27;20082;-65
2022/04/29 01:47:18;;;;;;;18.63;6.30;;;;;;;;;;5127220;27;20200;-65
2022/04/29 01:49:44;;;;;;;13.63;5.32;;;;;;;;;;5107507;27;20113;-64
2022/04/29 01:52:11;;;;;;;12.40;5.22;;;;;;;;;;5112858;27;20253;-65
2022/04/29 01:54:37;;;;;;;13.73;5.82;;;;;;;;;;5109597;27;20071;-64
2022/04/29 01:57:05;;;;;;;20.45;6.20;;;;;;;;;;5107992;27;20145;-64
2022/04/29 01:59:31;;;;;;;11.73;5.63;;;;;;;;;;5115405;27;20099;-64
2022/04/29 02:01:58;;;;;;;17.45;6.13;;;;;;;;;;5108977;27;20086;-64
2022/04/29 02:04:24;;;;;;;12.00;5.50;;;;;;;;;;5118303;27;20056;-65
2022/04/29 02:06:51;;;;;;;14.32;5.82;;;;;;;;;;5107777;27;20583;-64
2022/04/29 02:09:17;;;;;;;18.60;6.60;;;;;;;;;;5116721;27;20557;-64
2022/04/29 02:12:03;;;;;;;24.02;6.47;;;;;;;;;;5126943;27;20087;-65
2022/04/29 02:14:30;;;;;;;19.98;5.88;;;;;;;;;;5108334;27;20146;-64
2022/04/29 02:16:57;;;;;;;16.02;6.53;;;;;;;;;;5118241;27;20146;-65
2022/04/29 02:19:24;;;;;;;13.38;6.13;;;;;;;;;;5110039;27;20135;-64
2022/04/29 02:21:51;;;;;;;12.07;5.70;;;;;;;;;;5125200;27;20911;-65
2022/04/29 02:24:18;;;;;;;16.75;6.68;;;;;;;;;;5107902;27;20098;-64
2022/04/29 02:26:44;;;;;;;14.35;6.00;;;;;;;;;;5110359;27;20132;-65
2022/04/29 02:29:11;;;;;;;16.30;7.75;;;;;;;;;;5111727;27;20145;-64
2022/04/29 02:31:37;;;;;;;14.65;6.53;;;;;;;;;;5107656;27;20139;-64
2022/04/29 02:34:03;;;;;;;15.52;5.78;;;;;;;;;;5117319;27;20055;-64
2022/04/29 02:36:30;;;;;;;16.20;6.65;;;;;;;;;;5114740;27;20977;-65
2022/04/29 02:38:56;;;;;;;17.58;7.13;;;;;;;;;;5107193;27;20095;-65
2022/04/29 02:41:23;;;;;;;13.80;6.32;;;;;;;;;;5106566;27;20084;-65
2022/04/29 02:43:49;;;;;;;14.95;6.13;;;;;;;;;;5110197;27;20102;-65
2022/04/29 02:46:16;;;;;;;15.68;6.45;;;;;;;;;;5119927;27;20148;-64
2022/04/29 02:48:43;;;;;;;16.02;6.00;;;;;;;;;;5117077;27;20056;-64
2022/04/29 02:51:10;;;;;;;14.23;6.50;;;;;;;;;;5125863;27;20083;-65
2022/04/29 02:53:36;;;;;;;14.85;6.15;;;;;;;;;;5125049;27;20105;-66
2022/04/29 02:56:02;;;;;;;18.10;6.53;;;;;;;;;;5113072;27;20577;-65
2022/04/29 02:58:29;;;;;;;14.60;5.80;;;;;;;;;;5110164;27;20075;-65
2022/04/29 03:00:56;;;;;;;14.45;6.57;;;;;;;;;;5124523;27;20079;-65
2022/04/29 03:03:22;;;;;;;18.70;6.25;;;;;;;;;;5110192;27;20048;-65
2022/04/29 03:05:49;;;;;;;24.05;6.65;;;;;;;;;;5129639;27;20054;-66
2022/04/29 03:08:15;;;;;;;13.82;5.93;;;;;;;;;;5129727;27;20101;-65
2022/04/29 03:10:41;;;;;;;11.13;6.05;;;;;;;;;;5130323;27;20101;-65
2022/04/29 03:13:08;;;;;;;12.50;5.85;;;;;;;;;;5126040;27;20166;-65
2022/04/29 03:15:34;;;;;;;15.55;6.50;;;;;;;;;;5114501;27;20067;-67
2022/04/29 03:20:47;;;;;;;14.15;6.10;;;;;;;;;;5129898;27;20055;-67
2022/04/29 03:23:14;;;;;;;19.17;6.47;;;;;;;;;;5123243;27;20866;-67
2022/04/29 03:25:41;;;;;;;16.55;6.00;;;;;;;;;;5131714;27;20150;-66
2022/04/29 03:28:07;;;;;;;18.55;6.47;;;;;;;;;;5124332;27;20067;-68
2022/04/29 03:30:35;;;;;;;16.77;5.60;;;;;;;;;;5129164;27;20067;-65
2022/04/29 03:33:02;;;;;;;14.93;5.45;;;;;;;;;;5124978;27;20056;-64
2022/04/29 03:35:29;;;;;;;21.03;6.60;;;;;;;;;;5110536;27;20098;-65
2022/04/29 03:37:55;;;;;;;15.00;6.18;;;;;;;;;;5109393;27;20122;-64
2022/04/29 03:40:23;;;;;;;15.32;5.97;;;;;;;;;;5116832;27;20083;-64
2022/04/29 03:42:50;;;;;;;14.35;5.53;;;;;;;;;;5127603;27;20047;-63
2022/04/29 03:45:16;;;;;;;14.48;6.32;;;;;;;;;;5115109;27;20126;-64
2022/04/29 03:47:42;;;;;;;14.95;5.40;;;;;;;;;;5110515;27;20144;-64
2022/04/29 03:50:09;;;;;;;14.43;6.13;;;;;;;;;;5109451;27;20141;-65
2022/04/29 03:52:48;;;;;;;16.85;6.05;;;;;;;;;;5110292;27;20080;-65
2022/04/29 03:55:15;;;;;;;14.35;6.32;;;;;;;;;;5111087;27;20514;-65
2022/04/29 03:57:42;;;;;;;18.70;5.88;;;;;;;;;;5109488;27;20139;-65
2022/04/29 04:00:08;;;;;;;15.82;5.85;;;;;;;;;;5123570;27;20147;-65
2022/04/29 04:02:35;;;;;;;12.00;6.10;;;;;;;;;;5112128;27;20179;-65
2022/04/29 04:05:02;;;;;;;15.98;6.60;;;;;;;;;;5126183;27;21033;-65
2022/04/29 04:07:28;;;;;;;21.20;6.55;;;;;;;;;;5114960;27;20059;-65
2022/04/29 04:09:54;;;;;;;15.45;5.70;;;;;;;;;;5119818;27;20130;-65
2022/04/29 04:12:21;;;;;;;13.20;5.53;;;;;;;;;;5126246;27;20132;-65
2022/04/29 04:14:47;;;;;;;13.48;6.00;;;;;;;;;;5110104;27;20560;-65
2022/04/29 04:17:13;;;;;;;18.50;5.80;;;;;;;;;;5128696;27;20059;-65
2022/04/29 04:19:40;;;;;;;15.00;5.63;;;;;;;;;;5117083;27;20094;-65
2022/04/29 04:22:07;;;;;;;15.10;6.40;;;;;;;;;;5108605;27;20079;-65
2022/04/29 04:24:33;;;;;;;17.00;6.15;;;;;;;;;;5108848;27;20113;-65
2022/04/29 04:27:00;;;;;;;17.55;6.00;;;;;;;;;;5121935;27;20165;-65
2022/04/29 04:29:26;;;;;;;13.75;5.93;;;;;;;;;;5120785;27;20965;-65
2022/04/29 04:31:53;;;;;;;16.55;6.30;;;;;;;;;;5108033;28;20095;-65
2022/04/29 04:37:07;;;;;;;15.13;5.85;;;;;;;;;;5108141;27;20531;-64
2022/04/29 04:39:33;;;;;;;14.85;6.20;;;;;;;;;;5109961;27;20210;-64
2022/04/29 04:41:59;;;;;;;17.83;6.13;;;;;;;;;;5111439;27;20055;-64
2022/04/29 04:44:26;;;;;;;21.70;6.03;;;;;;;;;;5109584;27;20145;-64
2022/04/29 04:46:52;;;;;;;19.40;6.53;;;;;;;;;;5124156;27;20091;-65
2022/04/29 04:49:18;;;;;;;15.38;6.13;;;;;;;;;;5121280;27;20048;-64
2022/04/29 04:51:45;;;;;;;17.10;6.22;;;;;;;;;;5121515;27;20081;-64
2022/04/29 04:54:15;;;;;;;15.80;5.50;;;;;;;;;;5114615;27;20458;-64
2022/04/29 04:56:42;;;;;;;11.98;5.55;;;;;;;;;;5112687;27;20456;-64
2022/04/29 04:59:08;;;;;;;17.27;5.82;;;;;;;;;;5114104;27;20078;-64
2022/04/29 05:01:34;;;;;;;18.95;6.75;;;;;;;;;;5129850;27;20522;-65
2022/04/29 05:04:01;;;;;;;13.60;5.97;;;;;;;;;;5111546;27;20052;-64
2022/04/29 05:06:27;;;;;;;20.25;6.25;;;;;;;;;;5108748;27;20193;-64
2022/04/29 05:08:53;;;;;;;18.63;6.38;;;;;;;;;;5106254;27;20101;-64
2022/04/29 05:11:20;;;;;;;13.60;6.40;;;;;;;;;;5108253;27;20150;-64
2022/04/29 05:14:06;;;;;;;22.85;5.78;;;;;;;;;;5110609;27;20057;-64
2022/04/29 05:16:33;;;;;;;14.90;5.75;;;;;;;;;;5122904;27;20089;-65
2022/04/29 05:19:00;;;;;;;15.10;5.72;;;;;;;;;;5128980;27;20101;-64
2022/04/29 05:21:26;;;;;;;14.65;6.05;;;;;;;;;;5129251;27;20095;-64
2022/04/29 05:23:53;;;;;;;11.65;5.68;;;;;;;;;;5116595;27;20167;-64
2022/04/29 05:26:19;;;;;;;14.52;5.55;;;;;;;;;;5126593;27;20138;-64
2022/04/29 05:28:45;;;;;;;16.90;5.72;;;;;;;;;;5124614;27;20101;-64
2022/04/29 05:31:12;;;;;;;13.38;5.70;;;;;;;;;;5126171;27;20515;-64
2022/04/29 05:33:39;;;;;;;14.43;4.55;;;;;;;;;;5115090;27;21376;-64
2022/04/29 05:36:06;;;;;;;17.60;5.85;;;;;;;;;;5128787;27;20052;-64
2022/04/29 05:44:04;;;;;;;15.55;5.80;;;;;;;;;;5114977;27;20052;-64
2022/04/29 05:46:31;;;;;;;19.33;6.20;;;;;;;;;;5112838;27;20510;-64
2022/04/29 05:48:57;;;;;;;14.63;5.50;;;;;;;;;;5123403;27;20085;-64
2022/04/29 05:51:28;;;;;;;16.15;5.97;;;;;;;;;;5126621;27;20161;-65
2022/04/29 05:53:55;;;;;;;18.40;5.45;;;;;;;;;;5108682;27;20096;-64
2022/04/29 05:56:21;;;;;;;15.70;5.50;;;;;;;;;;5111603;27;20499;-64
2022/04/29 05:58:47;;;;;;;11.93;5.63;;;;;;;;;;5128588;27;20085;-66
2022/04/29 06:01:14;;;;;;;21.85;6.15;;;;;;;;;;5128622;27;20079;-64
2022/04/29 06:03:41;;;;;;;13.20;5.75;;;;;;;;;;5132165;27;20095;-64
2022/04/29 06:06:07;;;;;;;19.20;5.95;;;;;;;;;;5149571;27;20055;-64
2022/04/29 06:08:33;;;;;;;15.82;6.07;;;;;;;;;;5129378;27;20051;-64
2022/04/29 06:11:00;;;;;;;15.00;5.70;;;;;;;;;;5128296;27;20093;-64
2022/04/29 06:13:26;;;;;;;16.65;5.53;;;;;;;;;;5112244;27;20056;-64
2022/04/29 06:15:52;;;;;;;18.20;6.80;;;;;;;;;;5107503;27;20060;-64
2022/04/29 06:18:19;;;;;;;17.48;5.45;;;;;;;;;;5124094;27;20052;-64
2022/04/29 06:20:45;;;;;;;15.77;5.07;;;;;;;;;;5117422;27;20191;-65
2022/04/29 06:23:12;;;;;;;15.82;5.50;;;;;;;;;;5116893;27;20128;-64
2022/04/29 06:25:38;;;;;;;24.60;5.57;;;;;;;;;;5124581;27;20486;-64
2022/04/29 06:28:04;;;;;;;18.17;5.40;;;;;;;;;;5127890;27;20522;-64
2022/04/29 06:30:31;;;;;;;17.83;5.90;;;;;;;;;;5125371;27;20127;-64
2022/04/29 06:33:17;;;;;;;15.93;5.30;;;;;;;;;;5117536;27;20051;-64
2022/04/29 06:35:44;;;;;;;15.30;5.15;;;;;;;;;;5112051;27;20076;-65
2022/04/29 06:38:10;;;;;;;11.93;5.20;;;;;;;;;;5118207;27;20091;-67
2022/04/29 06:40:37;;;;;;;12.48;4.78;;;;;;;;;;5110984;27;20075;-63
2022/04/29 06:43:03;;;;;;;20.17;5.07;;;;;;;;;;5110747;27;20105;-62
2022/04/29 06:45:29;;;;;;;11.95;5.13;;;;;;;;;;5111192;27;20048;-61
2022/04/29 06:47:56;;;;;;;13.48;4.80;;;;;;;;;;5118572;27;20051;-62
2022/04/29 06:50:22;;;;;;;14.43;4.97;;;;;;;;;;5127492;27;20093;-62
2022/04/29 06:52:49;;;;;;;15.95;4.93;;;;;;;;;;5128781;27;20051;-62
2022/04/29 06:55:15;;;;;;;11.52;5.10;;;;;;;;;;5109289;27;20587;-62
2022/04/29 06:57:41;;;;;;;9.70;4.90;;;;;;;;;;5110082;27;20565;-62
2022/04/29 07:00:08;;;;;;;15.38;4.90;;;;;;;;;;5122726;27;20056;-62
2022/04/29 07:02:34;;;;;;;13.27;5.25;;;;;;;;;;5121415;27;20083;-62
2022/04/29 07:05:02;;;;;;;17.15;5.25;;;;;;;;;;5113173;27;20079;-62
2022/04/29 07:07:29;;;;;;;11.18;4.68;;;;;;;;;;5131454;27;20180;-62
2022/04/29 07:09:56;;;;;;;113.80;14.45;;;;;;;;;;5129540;27;20611;-66
2022/04/29 07:12:24;;;;;;;;;;;;;;;;;;5131188;27;20047;-64
2022/04/29 07:14:51;;;;;;;9.35;4.60;;;;;;;;;;5126084;27;44970;-64
2022/04/29 07:17:18;;;;;;;20.20;5.55;;;;;;;;;;5131455;27;20105;-64
2022/04/29 07:19:45;;;;;;;15.63;4.78;;;;;;;;;;5121754;27;20537;-64
2022/04/29 07:22:25;;;;;;;14.60;5.07;;;;;;;;;;5118247;27;20058;-65
2022/04/29 07:24:51;;;;;;;15.57;4.68;;;;;;;;;;5130941;27;20870;-64
2022/04/29 07:27:17;;;;;;;18.95;5.43;;;;;;;;;;5119046;27;20098;-63
2022/04/29 07:29:44;;;;;;;10.27;4.97;;;;;;;;;;5115644;27;20055;-64
2022/04/29 07:32:11;;;;;;;13.15;5.68;;;;;;;;;;5129689;27;20138;-64
2022/04/29 07:42:52;;;;;;;17.88;4.72;;;;;;;;;;5130387;27;20069;-64
2022/04/29 07:45:19;;;;;;;13.15;4.38;;;;;;;;;;5129754;27;20098;-64
2022/04/29 07:47:45;;;;;;;16.52;4.97;;;;;;;;;;5130722;27;20055;-64
2022/04/29 07:50:13;;;;;;;17.52;4.60;;;;;;;;;;5129983;27;20063;-64
2022/04/29 07:52:39;;;;;;;11.63;4.85;;;;;;;;;;5129535;27;20052;-64
2022/04/29 07:55:06;;;;;;;12.00;4.30;;;;;;;;;;5130271;27;20052;-64
2022/04/29 07:57:32;;;;;;;14.50;4.68;;;;;;;;;;5130616;27;20059;-64
2022/04/29 08:00:04;;;;;;;12.90;4.43;;;;;;;;;;5129810;27;20082;-64
2022/04/29 08:02:31;;;;;;;17.55;4.68;;;;;;;;;;5129521;27;20067;-64
2022/04/29 08:04:58;;;;;;;9.90;4.97;;;;;;;;;;5130090;27;20416;-64
2022/04/29 08:07:24;;;;;;;16.08;5.00;;;;;;;;;;5129256;27;20056;-65
2022/04/29 08:09:50;;;;;;;12.48;4.65;;;;;;;;;;5130088;27;20590;-65
2022/04/29 08:12:17;;;;;;;10.48;4.70;;;;;;;;;;5129556;27;20564;-65
2022/04/29 08:14:44;;;;;;;14.73;5.50;;;;;;;;;;5129591;27;20154;-65
2022/04/29 08:17:15;;;;;;;12.60;5.00;;;;;;;;;;5129662;27;20130;-65
2022/04/29 08:19:41;;;;;;;9.35;4.35;;;;;;;;;;5130284;27;20087;-65
2022/04/29 08:22:08;;;;;;;14.93;4.57;;;;;;;;;;5115907;27;20490;-65
2022/04/29 08:24:34;;;;;;;14.52;5.43;;;;;;;;;;5109087;27;20541;-65
2022/04/29 08:27:00;;;;;;;12.57;5.07;;;;;;;;;;5126363;27;20946;-65
2022/04/29 08:29:27;;;;;;;16.40;5.28;;;;;;;;;;5128144;27;20488;-65
2022/04/29 08:31:53;;;;;;;12.82;4.68;;;;;;;;;;5129175;27;20098;-65
2022/04/29 08:34:20;;;;;;;13.63;4.97;;;;;;;;;;5129099;27;20047;-65
2022/04/29 08:36:46;;;;;;;16.80;4.63;;;;;;;;;;5130055;27;20544;-65
2022/04/29 08:39:12;;;;;;;13.57;4.50;;;;;;;;;;5129198;27;20079;-65
2022/04/29 08:41:39;;;;;;;12.05;4.00;;;;;;;;;;5129817;27;20101;-65
2022/04/29 08:44:10;;;;;;;12.80;4.45;;;;;;;;;;5129447;27;20097;-65
2022/04/29 08:46:38;;;;;;;12.80;4.55;;;;;;;;;;5128953;27;20048;-65
2022/04/29 08:49:06;;;;;;;14.15;4.88;;;;;;;;;;5127641;27;20059;-66
2022/04/29 08:51:34;;;;;;;13.52;4.72;;;;;;;;;;5117479;27;20143;-64
2022/04/29 08:54:01;;;;;;;38.42;5.72;;;;;;;;;;5127109;27;20044;-64
2022/04/29 08:59:14;;;;;;;9.95;4.82;;;;;;;;;;5127110;27;20109;-65
2022/04/29 09:01:40;;;;;;;12.50;5.13;;;;;;;;;;5129512;27;20083;-65
2022/04/29 09:04:07;;;;;;;10.95;4.10;;;;;;;;;;5129384;27;20044;-66
2022/04/29 09:06:33;;;;;;;10.88;4.30;;;;;;;;;;5128749;27;20055;-65
2022/04/29 09:09:06;;;;;;;12.35;4.13;;;;;;;;;;5120936;27;20158;-65
2022/04/29 09:11:33;;;;;;;15.48;4.57;;;;;;;;;;5108376;28;20145;-65
2022/04/29 09:14:17;;;;;;;10.15;4.05;;;;;;;;;;5108417;27;20143;-65
2022/04/29 09:16:44;;;;;;;14.23;4.55;;;;;;;;;;5119491;27;20473;-65
2022/04/29 09:19:28;;;;;;;18.10;4.90;;;;;;;;;;5108417;27;20084;-65
2022/04/29 09:22:04;;;;;;;9.80;4.28;;;;;;;;;;5107631;27;20056;-64
2022/04/29 09:24:31;;;;;;;14.60;4.95;;;;;;;;;;5108416;27;20446;-65
2022/04/29 09:27:01;;;;;;;11.45;4.85;;;;;;;;;;5108706;27;20143;-64
2022/04/29 09:29:30;;;;;;;8.95;4.30;;;;;;;;;;5118739;27;20130;-65
2022/04/29 09:32:00;;;;;;;11.95;4.70;;;;;;;;;;5129057;27;20139;-65
2022/04/29 09:34:50;;;;;;;12.15;4.93;;;;;;;;;;5128114;27;20513;-65
2022/04/29 09:37:18;;;;;;;12.25;5.25;;;;;;;;;;5118051;27;20055;-65
2022/04/29 09:39:51;;;;;;;14.32;5.07;;;;;;;;;;5114782;27;20054;-64
2022/04/29 09:42:17;;;;;;;12.30;5.35;;;;;;;;;;5107026;27;20438;-65
2022/04/29 09:44:45;;;;;;;11.95;4.90;;;;;;;;;;5108885;27;20060;-65
2022/04/29 09:47:20;;;;;;;14.60;5.28;;;;;;;;;;5114553;27;20517;-62
2022/04/29 09:49:58;;;;;;;20.83;6.70;;;;;;;;;;5108048;27;20850;-61
2022/04/29 09:52:25;;;;;;;11.15;5.60;;;;;;;;;;5108659;28;20052;-61
2022/04/29 09:54:52;;;;;;;15.27;6.00;;;;;;;;;;5123978;27;20711;-61
2022/04/29 09:57:25;;;;;;;12.18;4.90;;;;;;;;;;5119300;27;20130;-61
2022/04/29 09:59:53;;;;;;;15.57;5.53;;;;;;;;;;5111296;27;20081;-64
2022/04/29 10:02:21;;;;;;;;;;;;;;;;;;5112580;27;20156;-63
2022/04/29 10:04:48;;;;;;;15.00;6.45;;;;;;;;;;5126431;27;43612;-64
2022/04/29 10:07:20;;;;;;;11.38;5.47;;;;;;;;;;5119331;27;20059;-64
2022/04/29 10:09:47;;;;;;;15.40;6.72;;;;;;;;;;5112161;27;20095;-64
2022/04/29 10:12:18;;;;;;;11.02;6.25;;;;;;;;;;5121021;27;20410;-64
2022/04/29 10:14:45;;;;;;;12.95;5.53;;;;;;;;;;5131761;27;20203;-64
2022/04/29 10:22:46;;;;;;;12.48;5.10;;;;;;;;;;5125618;27;20505;-64
2022/04/29 10:25:13;;;;;;;15.07;5.53;;;;;;;;;;5120737;27;20101;-64
2022/04/29 10:27:40;;;;;;;17.58;5.75;;;;;;;;;;5127220;27;20101;-64
2022/04/29 10:30:07;;;;;;;13.30;5.72;;;;;;;;;;5117089;27;20587;-64
2022/04/29 10:32:52;;;;;;;12.45;5.70;;;;;;;;;;5125675;27;20147;-64
2022/04/29 10:35:37;;;;;;;11.07;5.55;;;;;;;;;;5122668;27;20052;-64
2022/04/29 10:38:14;;;;;;;11.32;5.25;;;;;;;;;;5130693;27;20052;-63
2022/04/29 10:40:40;;;;;;;12.95;4.80;;;;;;;;;;5131425;27;20131;-63
2022/04/29 10:43:08;;;;;;;11.60;4.93;;;;;;;;;;5131460;27;20513;-63
2022/04/29 10:45:35;;;;;;;12.30;4.85;;;;;;;;;;5131798;27;20052;-63
2022/04/29 10:48:20;;;;;;;9.90;4.53;;;;;;;;;;5131102;27;20436;-63
2022/04/29 10:50:46;;;;;;;12.65;4.90;;;;;;;;;;5122766;27;20177;-64
2022/04/29 10:53:12;;;;;;;12.95;5.18;;;;;;;;;;5117814;27;20152;-63
2022/04/29 10:55:39;;;;;;;12.75;4.40;;;;;;;;;;5131206;27;20105;-63
2022/04/29 10:58:19;;;;;;;8.05;4.00;;;;;;;;;;5130617;27;20120;-64
2022/04/29 11:00:55;;;;;;;13.98;4.07;;;;;;;;;;5131670;27;20052;-64
2022/04/29 11:03:38;;;;;;;9.00;4.15;;;;;;;;;;5128217;27;20105;-64
2022/04/29 11:06:09;;;;;;;7.60;4.00;;;;;;;;;;5124731;27;20051;-64
2022/04/29 11:08:35;;;;;;;10.63;4.10;;;;;;;;;;5129687;27;20134;-64
2022/04/29 11:11:02;;;;;;;10.10;3.63;;;;;;;;;;5131029;27;20147;-64
2022/04/29 11:13:30;;;;;;;8.18;4.18;;;;;;;;;;5123879;27;20105;-64
2022/04/29 11:16:15;;;;;;;13.07;4.18;;;;;;;;;;5110692;27;20114;-65
2022/04/29 11:18:43;;;;;;;16.48;5.00;;;;;;;;;;5110106;27;20052;-64
2022/04/29 11:26:48;;;;;;;11.50;4.47;;;;;;;;;;5129914;27;20083;-64
2022/04/29 11:29:16;;;;;;;10.57;4.43;;;;;;;;;;5130332;27;20075;-62
2022/04/29 11:31:42;;;;;;;8.80;4.32;;;;;;;;;;5125709;27;20102;-63
2022/04/29 11:34:13;;;;;;;10.70;4.85;;;;;;;;;;5109363;27;20486;-64
2022/04/29 11:36:40;;;;;;;12.27;4.85;;;;;;;;;;5109900;27;20055;-64
2022/04/29 11:39:08;;;;;;;8.02;4.82;;;;;;;;;;5114485;27;20108;-63
2022/04/29 11:41:34;;;;;;;8.57;4.43;;;;;;;;;;5115471;27;20083;-65
2022/04/29 11:44:02;;;;;;;13.75;4.50;;;;;;;;;;5119818;27;20171;-64
2022/04/29 11:46:29;;;;;;;8.15;4.45;;;;;;;;;;5129124;27;20043;-64
2022/04/29 11:48:57;;;;;;;10.82;4.90;;;;;;;;;;5129850;27;20055;-64
2022/04/29 11:51:24;;;;;;;;;;;;;;;;;;5131127;27;20201;-64
2022/04/29 11:53:53;;;;;;;12.10;5.70;;;;;;;;;;5129534;27;43863;-64
2022/04/29 11:56:19;;;;;;;12.95;5.80;;;;;;;;;;5130422;27;20056;-64
2022/04/29 11:58:46;;;;;;;11.82;6.32;;;;;;;;;;5130776;27;20873;-65
2022/04/29 12:01:14;;;;;;;13.45;6.07;;;;;;;;;;5130770;27;20083;-65
2022/04/29 12:03:45;;;;;;;12.57;5.97;;;;;;;;;;5129378;27;20055;-64
2022/04/29 12:06:12;;;;;;;11.52;6.47;;;;;;;;;;5130819;27;20506;-64
2022/04/29 12:08:41;;;;;;;22.98;6.60;;;;;;;;;;5124601;27;21530;-64
2022/04/29 12:11:08;;;;;;;15.30;6.80;;;;;;;;;;5120923;27;20116;-64
2022/04/29 12:13:36;;;;;;;10.25;5.82;;;;;;;;;;5118980;27;20643;-64
2022/04/29 12:16:04;;;;;;;11.18;6.45;;;;;;;;;;5118692;27;20082;-64
2022/04/29 12:18:41;;;;;;;10.55;6.05;;;;;;;;;;5130333;27;20173;-64
2022/04/29 12:21:09;;;;;;;15.52;7.50;;;;;;;;;;5128925;27;20125;-64
2022/04/29 12:23:35;;;;;;;12.85;6.28;;;;;;;;;;5130881;27;20197;-64
2022/04/29 12:26:02;;;;;;;12.07;5.97;;;;;;;;;;5126825;27;20106;-64
2022/04/29 12:28:29;;;;;;;10.77;5.80;;;;;;;;;;5116851;27;20052;-64
2022/04/29 12:36:54;;;;;;;12.63;5.47;;;;;;;;;;5129724;27;20572;-64
2022/04/29 12:39:25;;;;;;;10.02;4.60;;;;;;;;;;5128377;27;20083;-63
2022/04/29 12:41:58;;;;;;;9.00;5.35;;;;;;;;;;5129317;27;20051;-63
2022/04/29 12:47:39;;;;;;;9.95;4.82;;;;;;;;;;5065911;28;20107;-63
2022/04/29 12:50:15;;;;;;;10.70;5.13;;;;;;;;;;5045981;28;20141;-64
2022/04/29 12:52:51;;;;;;;10.43;4.90;;;;;;;;;;5091321;27;20083;-63
2022/04/29 12:55:17;;;;;;;9.93;4.82;;;;;;;;;;5128836;27;20164;-63
2022/04/29 12:57:45;;;;;;;12.82;4.88;;;;;;;;;;5130016;27;20052;-63
2022/04/29 13:00:20;;;;;;;10.07;4.70;;;;;;;;;;5124818;27;20078;-63
2022/04/29 13:02:56;;;;;;;8.80;4.72;;;;;;;;;;5121117;27;20157;-63
2022/04/29 13:05:22;;;;;;;11.38;5.18;;;;;;;;;;5122458;27;20054;-63
2022/04/29 13:07:49;;;;;;;8.10;4.38;;;;;;;;;;5129794;27;20087;-63
2022/04/29 13:10:17;;;;;;;13.23;3.88;;;;;;;;;;5129199;27;20118;-63
2022/04/29 13:12:44;;;;;;;;;;;;;;;;;;5129181;27;20510;-63
2022/04/29 13:15:14;;;;;;;7.32;4.05;;;;;;;;;;5127528;27;43972;-63
2022/04/29 13:17:40;;;;;;;8.50;5.22;;;;;;;;;;5114933;27;20141;-63
2022/04/29 13:20:08;;;;;;;11.32;4.30;;;;;;;;;;5128817;27;20447;-64
2022/04/29 13:22:37;;;;;;;9.50;4.95;;;;;;;;;;5128969;27;20105;-64
2022/04/29 13:25:07;;;;;;;9.05;4.00;;;;;;;;;;5128506;27;20079;-64
2022/04/29 13:27:37;;;;;;;18.02;6.28;;;;;;;;;;5129278;27;20060;-64
2022/04/29 13:30:07;;;;;;;7.20;4.20;;;;;;;;;;5108085;27;20087;-64
2022/04/29 13:32:33;;;;;;;7.10;4.00;;;;;;;;;;5114947;27;20052;-64
2022/04/29 13:35:00;;;;;;;12.35;4.97;;;;;;;;;;5126730;27;20075;-63
2022/04/29 13:37:27;;;;;;;9.07;4.32;;;;;;;;;;5128906;27;20144;-63
2022/04/29 13:39:54;;;;;;;6.88;4.22;;;;;;;;;;5128189;27;20463;-64
2022/04/29 13:42:20;;;;;;;9.18;4.38;;;;;;;;;;5128812;27;20129;-64
2022/04/29 13:44:47;;;;;;;10.45;3.65;;;;;;;;;;5121912;27;20079;-64
2022/04/29 13:47:15;;;;;;;7.25;3.85;;;;;;;;;;5120267;27;20131;-64
2022/04/29 13:49:41;;;;;;;8.27;3.95;;;;;;;;;;5128507;27;20056;-65
2022/04/29 13:54:53;;;;;;;8.63;4.00;;;;;;;;;;5126580;27;21019;-66
2022/04/29 13:57:19;;;;;;;7.55;4.53;;;;;;;;;;5128547;27;20075;-65
2022/04/29 13:59:45;;;;;;;10.98;4.25;;;;;;;;;;5127352;27;20101;-65
2022/04/29 14:02:12;;;;;;;7.88;4.18;;;;;;;;;;5128537;27;20056;-64
2022/04/29 14:04:39;;;;;;;10.50;4.45;;;;;;;;;;5126772;27;20122;-65
2022/04/29 14:07:06;;;;;;;9.15;4.72;;;;;;;;;;5127282;27;20628;-65
2022/04/29 14:09:32;;;;;;;9.57;4.75;;;;;;;;;;5123431;27;20059;-65
2022/04/29 14:11:59;;;;;;;8.65;4.68;;;;;;;;;;5128045;27;20075;-64
2022/04/29 14:14:25;;;;;;;9.68;4.80;;;;;;;;;;5127637;27;20143;-64
2022/04/29 14:16:51;;;;;;;8.77;4.53;;;;;;;;;;5127727;27;20138;-65
2022/04/29 14:19:18;;;;;;;10.27;4.55;;;;;;;;;;5127410;27;20052;-65
2022/04/29 14:21:46;;;;;;;11.55;5.40;;;;;;;;;;5127000;27;20133;-64
2022/04/29 14:24:12;;;;;;;8.82;4.07;;;;;;;;;;5127675;27;20134;-64
2022/04/29 14:26:39;;;;;;;10.32;4.22;;;;;;;;;;5127521;27;20151;-65
2022/04/29 14:29:05;;;;;;;6.93;3.70;;;;;;;;;;5126921;27;20052;-65
2022/04/29 14:31:32;;;;;;;26.92;4.00;;;;;;;;;;5127817;27;20108;-64
2022/04/29 14:33:58;;;;;;;9.95;4.50;;;;;;;;;;5127166;27;20574;-65
2022/04/29 14:36:27;;;;;;;10.77;4.70;;;;;;;;;;5127613;27;20092;-65
2022/04/29 14:38:53;;;;;;;10.68;4.80;;;;;;;;;;5128028;27;20147;-64
2022/04/29 14:41:20;;;;;;;8.63;5.03;;;;;;;;;;5125703;27;20516;-64
2022/04/29 14:43:47;;;;;;;8.80;4.43;;;;;;;;;;5127820;27;20069;-66
2022/04/29 14:46:14;;;;;;;9.57;4.50;;;;;;;;;;5131645;27;20083;-64
2022/04/29 14:48:47;;;;;;;7.72;4.53;;;;;;;;;;5132122;27;20504;-65
2022/04/29 14:51:13;;;;;;;8.90;4.50;;;;;;;;;;5132230;27;20970;-64
2022/04/29 14:53:40;;;;;;;7.55;3.97;;;;;;;;;;5131442;27;20086;-65
2022/04/29 14:56:07;;;;;;;17.30;4.50;;;;;;;;;;5131424;27;20467;-64
2022/04/29 14:58:33;;;;;;;9.70;4.82;;;;;;;;;;5130014;27;20121;-64
2022/04/29 15:01:00;;;;;;;6.93;4.07;;;;;;;;;;5130698;27;20520;-64
2022/04/29 15:03:27;;;;;;;11.02;4.50;;;;;;;;;;5131047;27;20075;-64
2022/04/29 15:05:56;;;;;;;8.30;3.88;;;;;;;;;;5130288;27;20055;-64
2022/04/29 15:08:23;;;;;;;9.95;4.88;;;;;;;;;;5129916;27;20096;-64
2022/04/29 15:16:19;;;;;;;8.20;4.10;;;;;;;;;;5116562;27;20141;-64
2022/04/29 15:18:46;;;;;;;9.18;3.97;;;;;;;;;;5130464;27;20512;-64
2022/04/29 15:21:12;;;;;;;11.60;4.68;;;;;;;;;;5130043;27;20107;-64
2022/04/29 15:23:38;;;;;;;7.10;4.32;;;;;;;;;;5130517;27;20573;-64
2022/04/29 15:26:05;;;;;;;6.70;3.92;;;;;;;;;;5130108;27;20055;-64
2022/04/29 15:28:31;;;;;;;7.95;4.22;;;;;;;;;;5130866;27;20562;-64